sensor_id;sensor_type;location;lat;lon;timestamp;P1;durP1;ratioP1;P2;durP2;ratioP2
63089;SDS011;49174;43.198;27.824;2023-11-19T00:00:54;1.33;;;1.02;;
63089;SDS011;49174;43.198;27.824;2023-11-19T00:03:19;2.78;;;0.80;;
63089;SDS011;49174;43.198;27.824;2023-11-19T00:05:45;1.25;;;1.08;;
63089;SDS011;49174;43.198;27.824;2023-11-19T00:08:11;2.10;;;1.02;;
63089;SDS011;49174;43.198;27.824;2023-11-19T00:10:36;1.70;;;1.00;;
63089;SDS011;49174;43.198;27.824;2023-11-19T00:13:02;1.75;;;1.23;;
63089;SDS011;49174;43.198;27.824;2023-11-19T00:15:30;3.03;;;1.20;;
63089;SDS011;49174;43.198;27.824;2023-11-19T00:17:55;1.80;;;1.20;;
63089;SDS011;49174;43.198;27.824;2023-11-19T00:20:21;1.55;;;1.05;;
63089;SDS011;49174;43.198;27.824;2023-11-19T00:22:49;2.17;;;1.45;;
63089;SDS011;49174;43.198;27.824;2023-11-19T00:25:18;1.65;;;1.00;;
63089;SDS011;49174;43.198;27.824;2023-11-19T00:27:44;3.45;;;1.50;;
63089;SDS011;49174;43.198;27.824;2023-11-19T00:30:09;2.55;;;1.17;;
63089;SDS011;49174;43.198;27.824;2023-11-19T00:32:36;2.05;;;1.10;;
63089;SDS011;49174;43.198;27.824;2023-11-19T00:35:03;2.22;;;1.30;;
63089;SDS011;49174;43.198;27.824;2023-11-19T00:37:30;2.78;;;1.30;;
63089;SDS011;49174;43.198;27.824;2023-11-19T00:39:55;3.47;;;1.58;;
63089;SDS011;49174;43.198;27.824;2023-11-19T00:42:21;2.58;;;1.40;;
63089;SDS011;49174;43.198;27.824;2023-11-19T00:44:49;3.13;;;1.85;;
63089;SDS011;49174;43.198;27.824;2023-11-19T00:47:15;2.95;;;1.80;;
63089;SDS011;49174;43.198;27.824;2023-11-19T00:49:40;4.00;;;2.13;;
63089;SDS011;49174;43.198;27.824;2023-11-19T00:52:06;2.97;;;1.55;;
63089;SDS011;49174;43.198;27.824;2023-11-19T00:54:32;4.38;;;2.00;;
63089;SDS011;49174;43.198;27.824;2023-11-19T00:56:57;3.58;;;2.17;;
63089;SDS011;49174;43.198;27.824;2023-11-19T00:59:23;4.13;;;2.03;;
63089;SDS011;49174;43.198;27.824;2023-11-19T01:01:48;4.55;;;2.22;;
63089;SDS011;49174;43.198;27.824;2023-11-19T01:04:15;3.28;;;1.90;;
63089;SDS011;49174;43.198;27.824;2023-11-19T01:06:40;4.03;;;1.70;;
63089;SDS011;49174;43.198;27.824;2023-11-19T01:09:07;3.33;;;1.88;;
63089;SDS011;49174;43.198;27.824;2023-11-19T01:11:34;5.30;;;2.35;;
63089;SDS011;49174;43.198;27.824;2023-11-19T01:14:00;3.75;;;2.30;;
63089;SDS011;49174;43.198;27.824;2023-11-19T01:16:26;3.65;;;2.08;;
63089;SDS011;49174;43.198;27.824;2023-11-19T01:18:52;3.45;;;2.17;;
63089;SDS011;49174;43.198;27.824;2023-11-19T01:21:18;5.85;;;2.92;;
63089;SDS011;49174;43.198;27.824;2023-11-19T01:23:43;7.45;;;3.28;;
63089;SDS011;49174;43.198;27.824;2023-11-19T01:26:09;4.38;;;2.50;;
63089;SDS011;49174;43.198;27.824;2023-11-19T01:28:35;4.85;;;2.55;;
63089;SDS011;49174;43.198;27.824;2023-11-19T01:31:01;4.15;;;2.38;;
63089;SDS011;49174;43.198;27.824;2023-11-19T01:33:28;4.25;;;2.70;;
63089;SDS011;49174;43.198;27.824;2023-11-19T01:35:54;5.18;;;2.60;;
63089;SDS011;49174;43.198;27.824;2023-11-19T01:38:19;4.88;;;2.25;;
63089;SDS011;49174;43.198;27.824;2023-11-19T01:40:45;4.80;;;2.50;;
63089;SDS011;49174;43.198;27.824;2023-11-19T01:43:10;4.80;;;2.00;;
63089;SDS011;49174;43.198;27.824;2023-11-19T01:45:40;4.80;;;2.40;;
63089;SDS011;49174;43.198;27.824;2023-11-19T01:48:05;3.65;;;2.33;;
63089;SDS011;49174;43.198;27.824;2023-11-19T01:50:31;4.03;;;2.42;;
63089;SDS011;49174;43.198;27.824;2023-11-19T01:52:58;3.88;;;2.08;;
63089;SDS011;49174;43.198;27.824;2023-11-19T01:55:24;6.00;;;2.10;;
63089;SDS011;49174;43.198;27.824;2023-11-19T01:57:53;5.28;;;1.98;;
63089;SDS011;49174;43.198;27.824;2023-11-19T02:00:23;5.95;;;2.40;;
63089;SDS011;49174;43.198;27.824;2023-11-19T02:02:49;5.07;;;2.58;;
63089;SDS011;49174;43.198;27.824;2023-11-19T02:05:17;6.75;;;2.28;;
63089;SDS011;49174;43.198;27.824;2023-11-19T02:07:43;2.97;;;1.77;;
63089;SDS011;49174;43.198;27.824;2023-11-19T02:10:09;4.78;;;2.38;;
63089;SDS011;49174;43.198;27.824;2023-11-19T02:12:42;3.65;;;2.10;;
63089;SDS011;49174;43.198;27.824;2023-11-19T02:15:08;4.15;;;2.10;;
63089;SDS011;49174;43.198;27.824;2023-11-19T02:17:35;2.67;;;1.65;;
63089;SDS011;49174;43.198;27.824;2023-11-19T02:20:03;3.88;;;2.05;;
63089;SDS011;49174;43.198;27.824;2023-11-19T02:22:32;3.20;;;2.50;;
63089;SDS011;49174;43.198;27.824;2023-11-19T02:25:01;4.35;;;1.85;;
63089;SDS011;49174;43.198;27.824;2023-11-19T02:30:10;3.63;;;2.33;;
63089;SDS011;49174;43.198;27.824;2023-11-19T02:32:36;4.32;;;2.30;;
63089;SDS011;49174;43.198;27.824;2023-11-19T02:35:06;3.50;;;2.15;;
63089;SDS011;49174;43.198;27.824;2023-11-19T02:37:33;4.80;;;2.45;;
63089;SDS011;49174;43.198;27.824;2023-11-19T02:40:05;4.13;;;2.55;;
63089;SDS011;49174;43.198;27.824;2023-11-19T02:42:33;4.38;;;3.00;;
63089;SDS011;49174;43.198;27.824;2023-11-19T02:44:59;5.40;;;2.35;;
63089;SDS011;49174;43.198;27.824;2023-11-19T02:47:24;4.25;;;2.28;;
63089;SDS011;49174;43.198;27.824;2023-11-19T02:49:50;3.92;;;2.05;;
63089;SDS011;49174;43.198;27.824;2023-11-19T02:52:16;4.45;;;2.50;;
63089;SDS011;49174;43.198;27.824;2023-11-19T02:54:42;4.85;;;2.75;;
63089;SDS011;49174;43.198;27.824;2023-11-19T02:57:08;4.63;;;2.83;;
63089;SDS011;49174;43.198;27.824;2023-11-19T02:59:37;5.78;;;3.28;;
63089;SDS011;49174;43.198;27.824;2023-11-19T03:02:04;6.97;;;3.67;;
63089;SDS011;49174;43.198;27.824;2023-11-19T03:04:32;5.55;;;2.85;;
63089;SDS011;49174;43.198;27.824;2023-11-19T03:06:59;7.93;;;3.95;;
63089;SDS011;49174;43.198;27.824;2023-11-19T03:09:24;5.80;;;3.45;;
63089;SDS011;49174;43.198;27.824;2023-11-19T03:11:50;7.88;;;3.70;;
63089;SDS011;49174;43.198;27.824;2023-11-19T03:14:15;7.38;;;4.47;;
63089;SDS011;49174;43.198;27.824;2023-11-19T03:16:44;6.38;;;3.83;;
63089;SDS011;49174;43.198;27.824;2023-11-19T03:19:11;9.27;;;4.80;;
63089;SDS011;49174;43.198;27.824;2023-11-19T03:21:37;8.50;;;4.93;;
63089;SDS011;49174;43.198;27.824;2023-11-19T03:24:03;8.27;;;4.97;;
63089;SDS011;49174;43.198;27.824;2023-11-19T03:26:28;9.13;;;4.95;;
63089;SDS011;49174;43.198;27.824;2023-11-19T03:28:54;6.85;;;4.05;;
63089;SDS011;49174;43.198;27.824;2023-11-19T03:31:22;8.48;;;5.47;;
63089;SDS011;49174;43.198;27.824;2023-11-19T03:33:48;9.18;;;5.53;;
63089;SDS011;49174;43.198;27.824;2023-11-19T03:36:13;11.20;;;5.18;;
63089;SDS011;49174;43.198;27.824;2023-11-19T03:38:39;7.05;;;4.55;;
63089;SDS011;49174;43.198;27.824;2023-11-19T03:41:13;10.63;;;5.93;;
63089;SDS011;49174;43.198;27.824;2023-11-19T03:43:39;8.13;;;5.18;;
63089;SDS011;49174;43.198;27.824;2023-11-19T03:46:20;8.98;;;5.45;;
63089;SDS011;49174;43.198;27.824;2023-11-19T03:48:47;11.05;;;6.13;;
63089;SDS011;49174;43.198;27.824;2023-11-19T03:51:14;9.57;;;6.22;;
63089;SDS011;49174;43.198;27.824;2023-11-19T03:53:43;11.18;;;5.82;;
63089;SDS011;49174;43.198;27.824;2023-11-19T03:56:11;11.10;;;6.50;;
63089;SDS011;49174;43.198;27.824;2023-11-19T03:58:37;9.43;;;5.22;;
63089;SDS011;49174;43.198;27.824;2023-11-19T04:01:10;7.88;;;4.78;;
63089;SDS011;49174;43.198;27.824;2023-11-19T04:03:37;9.40;;;6.03;;
63089;SDS011;49174;43.198;27.824;2023-11-19T04:06:02;7.78;;;5.45;;
63089;SDS011;49174;43.198;27.824;2023-11-19T04:08:29;12.02;;;6.90;;
63089;SDS011;49174;43.198;27.824;2023-11-19T04:10:54;12.98;;;6.43;;
63089;SDS011;49174;43.198;27.824;2023-11-19T04:13:20;9.32;;;6.15;;
63089;SDS011;49174;43.198;27.824;2023-11-19T04:15:45;11.55;;;7.10;;
63089;SDS011;49174;43.198;27.824;2023-11-19T04:18:11;14.32;;;6.70;;
63089;SDS011;49174;43.198;27.824;2023-11-19T04:20:37;9.88;;;6.15;;
63089;SDS011;49174;43.198;27.824;2023-11-19T04:23:02;8.68;;;5.13;;
63089;SDS011;49174;43.198;27.824;2023-11-19T04:25:28;12.73;;;8.27;;
63089;SDS011;49174;43.198;27.824;2023-11-19T04:27:54;9.25;;;5.45;;
63089;SDS011;49174;43.198;27.824;2023-11-19T04:30:19;7.60;;;4.57;;
63089;SDS011;49174;43.198;27.824;2023-11-19T04:32:45;10.55;;;7.70;;
63089;SDS011;49174;43.198;27.824;2023-11-19T04:35:10;7.65;;;4.55;;
63089;SDS011;49174;43.198;27.824;2023-11-19T04:37:36;10.95;;;6.43;;
63089;SDS011;49174;43.198;27.824;2023-11-19T04:40:03;10.82;;;5.85;;
63089;SDS011;49174;43.198;27.824;2023-11-19T04:42:28;10.80;;;6.28;;
63089;SDS011;49174;43.198;27.824;2023-11-19T04:44:54;13.43;;;6.25;;
63089;SDS011;49174;43.198;27.824;2023-11-19T04:47:20;9.13;;;5.90;;
63089;SDS011;49174;43.198;27.824;2023-11-19T04:49:46;11.23;;;6.43;;
63089;SDS011;49174;43.198;27.824;2023-11-19T04:52:12;10.98;;;5.28;;
63089;SDS011;49174;43.198;27.824;2023-11-19T04:54:43;9.63;;;6.25;;
63089;SDS011;49174;43.198;27.824;2023-11-19T04:57:09;10.85;;;6.30;;
63089;SDS011;49174;43.198;27.824;2023-11-19T04:59:38;10.85;;;6.72;;
63089;SDS011;49174;43.198;27.824;2023-11-19T05:02:04;11.85;;;5.93;;
63089;SDS011;49174;43.198;27.824;2023-11-19T05:04:30;8.40;;;4.78;;
63089;SDS011;49174;43.198;27.824;2023-11-19T05:06:56;8.70;;;4.85;;
63089;SDS011;49174;43.198;27.824;2023-11-19T05:09:22;8.38;;;4.50;;
63089;SDS011;49174;43.198;27.824;2023-11-19T05:11:47;8.82;;;4.20;;
63089;SDS011;49174;43.198;27.824;2023-11-19T05:14:13;12.05;;;6.03;;
63089;SDS011;49174;43.198;27.824;2023-11-19T05:16:40;10.32;;;5.68;;
63089;SDS011;49174;43.198;27.824;2023-11-19T05:19:07;13.20;;;6.82;;
63089;SDS011;49174;43.198;27.824;2023-11-19T05:21:34;11.10;;;6.13;;
63089;SDS011;49174;43.198;27.824;2023-11-19T05:24:01;9.80;;;6.05;;
63089;SDS011;49174;43.198;27.824;2023-11-19T05:26:29;8.20;;;4.75;;
63089;SDS011;49174;43.198;27.824;2023-11-19T05:28:55;8.10;;;4.97;;
63089;SDS011;49174;43.198;27.824;2023-11-19T05:31:21;8.55;;;5.30;;
63089;SDS011;49174;43.198;27.824;2023-11-19T05:33:46;9.80;;;5.57;;
63089;SDS011;49174;43.198;27.824;2023-11-19T05:36:12;8.80;;;4.88;;
63089;SDS011;49174;43.198;27.824;2023-11-19T05:38:38;8.98;;;4.72;;
63089;SDS011;49174;43.198;27.824;2023-11-19T05:41:04;11.77;;;5.72;;
63089;SDS011;49174;43.198;27.824;2023-11-19T05:43:30;6.68;;;4.07;;
63089;SDS011;49174;43.198;27.824;2023-11-19T05:45:56;9.80;;;5.30;;
63089;SDS011;49174;43.198;27.824;2023-11-19T05:48:22;9.27;;;5.40;;
63089;SDS011;49174;43.198;27.824;2023-11-19T05:50:50;7.97;;;5.20;;
63089;SDS011;49174;43.198;27.824;2023-11-19T05:53:15;7.25;;;4.70;;
63089;SDS011;49174;43.198;27.824;2023-11-19T05:55:41;7.13;;;4.75;;
63089;SDS011;49174;43.198;27.824;2023-11-19T05:58:29;9.18;;;5.28;;
63089;SDS011;49174;43.198;27.824;2023-11-19T06:00:55;9.60;;;4.88;;
63089;SDS011;49174;43.198;27.824;2023-11-19T06:03:22;7.15;;;3.92;;
63089;SDS011;49174;43.198;27.824;2023-11-19T06:05:48;9.02;;;4.22;;
63089;SDS011;49174;43.198;27.824;2023-11-19T06:08:14;6.40;;;3.78;;
63089;SDS011;49174;43.198;27.824;2023-11-19T06:10:40;10.43;;;6.22;;
63089;SDS011;49174;43.198;27.824;2023-11-19T06:13:06;6.65;;;4.35;;
63089;SDS011;49174;43.198;27.824;2023-11-19T06:15:32;7.88;;;4.03;;
63089;SDS011;49174;43.198;27.824;2023-11-19T06:17:58;6.88;;;4.55;;
63089;SDS011;49174;43.198;27.824;2023-11-19T06:20:32;7.38;;;4.18;;
63089;SDS011;49174;43.198;27.824;2023-11-19T06:22:58;6.53;;;3.90;;
63089;SDS011;49174;43.198;27.824;2023-11-19T06:25:24;8.80;;;5.05;;
63089;SDS011;49174;43.198;27.824;2023-11-19T06:27:49;7.82;;;4.60;;
63089;SDS011;49174;43.198;27.824;2023-11-19T06:30:15;8.02;;;4.68;;
63089;SDS011;49174;43.198;27.824;2023-11-19T06:32:41;8.00;;;4.22;;
63089;SDS011;49174;43.198;27.824;2023-11-19T06:35:07;6.85;;;3.85;;
63089;SDS011;49174;43.198;27.824;2023-11-19T06:37:34;8.00;;;3.70;;
63089;SDS011;49174;43.198;27.824;2023-11-19T06:40:00;4.00;;;2.53;;
63089;SDS011;49174;43.198;27.824;2023-11-19T06:42:26;7.95;;;3.90;;
63089;SDS011;49174;43.198;27.824;2023-11-19T06:44:52;7.47;;;3.97;;
63089;SDS011;49174;43.198;27.824;2023-11-19T06:47:17;6.40;;;4.15;;
63089;SDS011;49174;43.198;27.824;2023-11-19T06:49:43;9.57;;;3.65;;
63089;SDS011;49174;43.198;27.824;2023-11-19T06:52:10;6.97;;;4.57;;
63089;SDS011;49174;43.198;27.824;2023-11-19T06:54:35;9.45;;;4.70;;
63089;SDS011;49174;43.198;27.824;2023-11-19T06:57:01;8.07;;;3.88;;
63089;SDS011;49174;43.198;27.824;2023-11-19T06:59:28;10.27;;;5.95;;
63089;SDS011;49174;43.198;27.824;2023-11-19T07:01:54;7.22;;;3.78;;
63089;SDS011;49174;43.198;27.824;2023-11-19T07:04:20;6.18;;;3.72;;
63089;SDS011;49174;43.198;27.824;2023-11-19T07:06:45;8.77;;;5.47;;
63089;SDS011;49174;43.198;27.824;2023-11-19T07:09:11;7.75;;;3.53;;
63089;SDS011;49174;43.198;27.824;2023-11-19T07:11:39;7.88;;;5.20;;
63089;SDS011;49174;43.198;27.824;2023-11-19T07:14:06;5.55;;;3.85;;
63089;SDS011;49174;43.198;27.824;2023-11-19T07:16:33;10.23;;;5.72;;
63089;SDS011;49174;43.198;27.824;2023-11-19T07:19:00;8.02;;;5.15;;
63089;SDS011;49174;43.198;27.824;2023-11-19T07:21:26;8.23;;;5.45;;
63089;SDS011;49174;43.198;27.824;2023-11-19T07:23:53;7.45;;;4.07;;
63089;SDS011;49174;43.198;27.824;2023-11-19T07:26:20;7.20;;;4.47;;
63089;SDS011;49174;43.198;27.824;2023-11-19T07:28:47;10.85;;;5.60;;
63089;SDS011;49174;43.198;27.824;2023-11-19T07:31:13;7.50;;;3.90;;
63089;SDS011;49174;43.198;27.824;2023-11-19T07:33:39;10.85;;;4.90;;
63089;SDS011;49174;43.198;27.824;2023-11-19T07:36:09;10.32;;;5.05;;
63089;SDS011;49174;43.198;27.824;2023-11-19T07:38:35;7.93;;;5.05;;
63089;SDS011;49174;43.198;27.824;2023-11-19T07:41:01;6.78;;;4.63;;
63089;SDS011;49174;43.198;27.824;2023-11-19T07:43:27;9.75;;;5.07;;
63089;SDS011;49174;43.198;27.824;2023-11-19T07:45:52;4.88;;;3.75;;
63089;SDS011;49174;43.198;27.824;2023-11-19T07:48:18;9.13;;;4.85;;
63089;SDS011;49174;43.198;27.824;2023-11-19T07:50:48;6.32;;;4.25;;
63089;SDS011;49174;43.198;27.824;2023-11-19T07:53:18;8.30;;;5.22;;
63089;SDS011;49174;43.198;27.824;2023-11-19T07:55:45;6.78;;;4.72;;
63089;SDS011;49174;43.198;27.824;2023-11-19T07:58:11;6.70;;;4.45;;
63089;SDS011;49174;43.198;27.824;2023-11-19T08:00:37;7.93;;;5.07;;
63089;SDS011;49174;43.198;27.824;2023-11-19T08:03:03;6.25;;;4.25;;
63089;SDS011;49174;43.198;27.824;2023-11-19T08:05:29;8.85;;;5.45;;
63089;SDS011;49174;43.198;27.824;2023-11-19T08:07:56;8.48;;;4.97;;
63089;SDS011;49174;43.198;27.824;2023-11-19T08:10:22;11.05;;;5.55;;
63089;SDS011;49174;43.198;27.824;2023-11-19T08:12:47;9.50;;;6.55;;
63089;SDS011;49174;43.198;27.824;2023-11-19T08:15:13;10.18;;;5.45;;
63089;SDS011;49174;43.198;27.824;2023-11-19T08:17:39;8.55;;;5.07;;
63089;SDS011;49174;43.198;27.824;2023-11-19T08:20:05;7.70;;;5.13;;
63089;SDS011;49174;43.198;27.824;2023-11-19T08:22:35;7.32;;;4.88;;
63089;SDS011;49174;43.198;27.824;2023-11-19T08:25:00;8.05;;;5.18;;
63089;SDS011;49174;43.198;27.824;2023-11-19T08:27:28;8.38;;;5.13;;
63089;SDS011;49174;43.198;27.824;2023-11-19T08:29:54;7.10;;;4.13;;
63089;SDS011;49174;43.198;27.824;2023-11-19T08:32:22;8.98;;;4.65;;
63089;SDS011;49174;43.198;27.824;2023-11-19T08:34:48;8.77;;;4.93;;
63089;SDS011;49174;43.198;27.824;2023-11-19T08:37:14;8.50;;;5.88;;
63089;SDS011;49174;43.198;27.824;2023-11-19T08:39:40;8.05;;;3.92;;
63089;SDS011;49174;43.198;27.824;2023-11-19T08:42:07;7.85;;;4.63;;
63089;SDS011;49174;43.198;27.824;2023-11-19T08:44:32;7.05;;;4.50;;
63089;SDS011;49174;43.198;27.824;2023-11-19T08:46:58;7.65;;;4.55;;
63089;SDS011;49174;43.198;27.824;2023-11-19T08:49:23;8.65;;;5.28;;
63089;SDS011;49174;43.198;27.824;2023-11-19T08:51:49;8.30;;;5.13;;
63089;SDS011;49174;43.198;27.824;2023-11-19T08:54:14;9.02;;;4.30;;
63089;SDS011;49174;43.198;27.824;2023-11-19T08:56:40;13.40;;;4.32;;
63089;SDS011;49174;43.198;27.824;2023-11-19T08:59:06;7.53;;;5.03;;
63089;SDS011;49174;43.198;27.824;2023-11-19T09:01:31;9.93;;;3.92;;
63089;SDS011;49174;43.198;27.824;2023-11-19T09:03:57;6.10;;;4.07;;
63089;SDS011;49174;43.198;27.824;2023-11-19T09:06:23;6.57;;;3.75;;
63089;SDS011;49174;43.198;27.824;2023-11-19T09:08:48;8.77;;;5.50;;
63089;SDS011;49174;43.198;27.824;2023-11-19T09:11:14;7.53;;;5.30;;
63089;SDS011;49174;43.198;27.824;2023-11-19T09:13:39;8.30;;;6.18;;
63089;SDS011;49174;43.198;27.824;2023-11-19T09:16:05;8.60;;;5.55;;
63089;SDS011;49174;43.198;27.824;2023-11-19T09:18:31;7.70;;;5.25;;
63089;SDS011;49174;43.198;27.824;2023-11-19T09:21:00;5.93;;;3.55;;
63089;SDS011;49174;43.198;27.824;2023-11-19T09:23:25;7.55;;;4.80;;
63089;SDS011;49174;43.198;27.824;2023-11-19T09:25:53;6.47;;;3.53;;
63089;SDS011;49174;43.198;27.824;2023-11-19T09:28:18;8.73;;;5.07;;
63089;SDS011;49174;43.198;27.824;2023-11-19T09:30:44;9.13;;;5.22;;
63089;SDS011;49174;43.198;27.824;2023-11-19T09:33:09;5.90;;;4.10;;
63089;SDS011;49174;43.198;27.824;2023-11-19T09:35:35;9.07;;;4.38;;
63089;SDS011;49174;43.198;27.824;2023-11-19T09:38:01;10.88;;;5.72;;
63089;SDS011;49174;43.198;27.824;2023-11-19T09:40:27;7.32;;;4.65;;
63089;SDS011;49174;43.198;27.824;2023-11-19T09:42:54;8.35;;;4.95;;
63089;SDS011;49174;43.198;27.824;2023-11-19T09:45:20;12.20;;;6.00;;
63089;SDS011;49174;43.198;27.824;2023-11-19T09:47:47;7.45;;;5.03;;
63089;SDS011;49174;43.198;27.824;2023-11-19T09:50:21;8.95;;;4.30;;
63089;SDS011;49174;43.198;27.824;2023-11-19T09:55:13;11.65;;;4.28;;
63089;SDS011;49174;43.198;27.824;2023-11-19T09:57:39;8.18;;;3.90;;
63089;SDS011;49174;43.198;27.824;2023-11-19T10:00:07;8.15;;;4.82;;
63089;SDS011;49174;43.198;27.824;2023-11-19T10:02:33;8.40;;;5.95;;
63089;SDS011;49174;43.198;27.824;2023-11-19T10:05:06;9.32;;;5.20;;
63089;SDS011;49174;43.198;27.824;2023-11-19T10:07:32;7.22;;;5.07;;
63089;SDS011;49174;43.198;27.824;2023-11-19T10:09:59;7.65;;;4.88;;
63089;SDS011;49174;43.198;27.824;2023-11-19T10:12:26;7.22;;;5.18;;
63089;SDS011;49174;43.198;27.824;2023-11-19T10:14:53;13.40;;;5.53;;
63089;SDS011;49174;43.198;27.824;2023-11-19T10:17:21;8.88;;;4.82;;
63089;SDS011;49174;43.198;27.824;2023-11-19T10:19:47;8.38;;;4.55;;
63089;SDS011;49174;43.198;27.824;2023-11-19T10:22:12;7.75;;;5.03;;
63089;SDS011;49174;43.198;27.824;2023-11-19T10:24:41;8.32;;;4.88;;
63089;SDS011;49174;43.198;27.824;2023-11-19T10:27:07;7.57;;;4.18;;
63089;SDS011;49174;43.198;27.824;2023-11-19T10:29:36;7.80;;;4.68;;
63089;SDS011;49174;43.198;27.824;2023-11-19T10:32:03;8.93;;;4.82;;
63089;SDS011;49174;43.198;27.824;2023-11-19T10:34:28;10.73;;;6.53;;
63089;SDS011;49174;43.198;27.824;2023-11-19T10:36:55;11.63;;;6.65;;
63089;SDS011;49174;43.198;27.824;2023-11-19T10:39:20;18.85;;;4.65;;
63089;SDS011;49174;43.198;27.824;2023-11-19T10:41:48;6.38;;;4.45;;
63089;SDS011;49174;43.198;27.824;2023-11-19T10:44:28;7.28;;;4.30;;
63089;SDS011;49174;43.198;27.824;2023-11-19T10:46:56;5.10;;;3.83;;
63089;SDS011;49174;43.198;27.824;2023-11-19T10:49:22;5.55;;;3.42;;
63089;SDS011;49174;43.198;27.824;2023-11-19T10:51:47;7.85;;;4.88;;
63089;SDS011;49174;43.198;27.824;2023-11-19T10:54:15;5.47;;;4.15;;
63089;SDS011;49174;43.198;27.824;2023-11-19T10:56:44;7.20;;;3.80;;
63089;SDS011;49174;43.198;27.824;2023-11-19T10:59:14;6.95;;;4.10;;
63089;SDS011;49174;43.198;27.824;2023-11-19T11:01:44;5.93;;;3.97;;
63089;SDS011;49174;43.198;27.824;2023-11-19T11:04:13;6.47;;;4.70;;
63089;SDS011;49174;43.198;27.824;2023-11-19T11:06:42;9.35;;;4.65;;
63089;SDS011;49174;43.198;27.824;2023-11-19T11:09:09;6.45;;;3.95;;
63089;SDS011;49174;43.198;27.824;2023-11-19T11:11:39;7.47;;;4.70;;
63089;SDS011;49174;43.198;27.824;2023-11-19T11:14:05;8.02;;;4.93;;
63089;SDS011;49174;43.198;27.824;2023-11-19T11:16:33;6.90;;;4.78;;
63089;SDS011;49174;43.198;27.824;2023-11-19T11:19:01;6.72;;;4.90;;
63089;SDS011;49174;43.198;27.824;2023-11-19T11:21:27;9.20;;;4.53;;
63089;SDS011;49174;43.198;27.824;2023-11-19T11:26:58;8.85;;;5.20;;
63089;SDS011;49174;43.198;27.824;2023-11-19T11:38:07;7.93;;;5.43;;
63089;SDS011;49174;43.198;27.824;2023-11-19T11:40:34;9.18;;;6.05;;
63089;SDS011;49174;43.198;27.824;2023-11-19T11:43:02;8.13;;;5.97;;
63089;SDS011;49174;43.198;27.824;2023-11-19T11:48:09;10.20;;;6.35;;
63089;SDS011;49174;43.198;27.824;2023-11-19T11:50:36;8.63;;;6.28;;
63089;SDS011;49174;43.198;27.824;2023-11-19T11:53:17;10.02;;;7.40;;
63089;SDS011;49174;43.198;27.824;2023-11-19T11:58:25;10.35;;;6.82;;
63089;SDS011;49174;43.198;27.824;2023-11-19T12:00:52;10.05;;;6.57;;
63089;SDS011;49174;43.198;27.824;2023-11-19T12:03:21;9.20;;;6.68;;
63089;SDS011;49174;43.198;27.824;2023-11-19T12:05:48;10.38;;;7.15;;
63089;SDS011;49174;43.198;27.824;2023-11-19T12:08:14;11.70;;;6.72;;
63089;SDS011;49174;43.198;27.824;2023-11-19T12:13:12;9.70;;;7.00;;
63089;SDS011;49174;43.198;27.824;2023-11-19T12:20:48;12.48;;;7.75;;
63089;SDS011;49174;43.198;27.824;2023-11-19T12:23:14;10.57;;;7.18;;
63089;SDS011;49174;43.198;27.824;2023-11-19T12:25:40;10.63;;;7.18;;
63089;SDS011;49174;43.198;27.824;2023-11-19T12:28:11;12.05;;;6.78;;
63089;SDS011;49174;43.198;27.824;2023-11-19T12:30:37;11.27;;;6.80;;
63089;SDS011;49174;43.198;27.824;2023-11-19T12:33:07;11.30;;;6.80;;
63089;SDS011;49174;43.198;27.824;2023-11-19T12:35:38;12.20;;;8.15;;
63089;SDS011;49174;43.198;27.824;2023-11-19T12:38:04;10.05;;;7.60;;
63089;SDS011;49174;43.198;27.824;2023-11-19T12:40:30;11.52;;;8.10;;
63089;SDS011;49174;43.198;27.824;2023-11-19T12:42:56;11.30;;;7.38;;
63089;SDS011;49174;43.198;27.824;2023-11-19T12:45:22;11.85;;;7.10;;
63089;SDS011;49174;43.198;27.824;2023-11-19T12:47:49;12.02;;;6.88;;
63089;SDS011;49174;43.198;27.824;2023-11-19T12:50:18;9.55;;;7.25;;
63089;SDS011;49174;43.198;27.824;2023-11-19T12:52:56;12.73;;;6.97;;
63089;SDS011;49174;43.198;27.824;2023-11-19T12:55:24;10.63;;;7.03;;
63089;SDS011;49174;43.198;27.824;2023-11-19T12:57:54;11.75;;;7.22;;
63089;SDS011;49174;43.198;27.824;2023-11-19T13:00:23;11.60;;;7.30;;
63089;SDS011;49174;43.198;27.824;2023-11-19T13:02:55;10.15;;;6.88;;
63089;SDS011;49174;43.198;27.824;2023-11-19T13:05:26;11.48;;;7.72;;
63089;SDS011;49174;43.198;27.824;2023-11-19T13:07:58;11.20;;;7.35;;
63089;SDS011;49174;43.198;27.824;2023-11-19T13:10:24;11.27;;;7.10;;
63089;SDS011;49174;43.198;27.824;2023-11-19T13:13:05;12.18;;;8.00;;
63089;SDS011;49174;43.198;27.824;2023-11-19T13:15:33;9.75;;;7.00;;
63089;SDS011;49174;43.198;27.824;2023-11-19T13:17:59;11.13;;;7.03;;
63089;SDS011;49174;43.198;27.824;2023-11-19T13:20:25;11.25;;;8.05;;
63089;SDS011;49174;43.198;27.824;2023-11-19T13:23:09;11.98;;;7.90;;
63089;SDS011;49174;43.198;27.824;2023-11-19T13:25:36;10.35;;;7.00;;
63089;SDS011;49174;43.198;27.824;2023-11-19T13:28:02;12.95;;;7.95;;
63089;SDS011;49174;43.198;27.824;2023-11-19T13:30:27;14.32;;;7.97;;
63089;SDS011;49174;43.198;27.824;2023-11-19T13:32:54;12.70;;;7.68;;
63089;SDS011;49174;43.198;27.824;2023-11-19T13:35:21;12.63;;;8.73;;
63089;SDS011;49174;43.198;27.824;2023-11-19T13:37:50;14.45;;;8.60;;
63089;SDS011;49174;43.198;27.824;2023-11-19T13:40:16;12.20;;;7.50;;
63089;SDS011;49174;43.198;27.824;2023-11-19T13:42:42;15.40;;;8.80;;
63089;SDS011;49174;43.198;27.824;2023-11-19T13:45:09;11.43;;;8.18;;
63089;SDS011;49174;43.198;27.824;2023-11-19T13:47:42;12.98;;;7.90;;
63089;SDS011;49174;43.198;27.824;2023-11-19T13:50:09;16.30;;;9.13;;
63089;SDS011;49174;43.198;27.824;2023-11-19T13:52:43;13.60;;;8.98;;
63089;SDS011;49174;43.198;27.824;2023-11-19T13:55:13;13.00;;;8.13;;
63089;SDS011;49174;43.198;27.824;2023-11-19T13:57:41;13.70;;;8.63;;
63089;SDS011;49174;43.198;27.824;2023-11-19T14:00:11;13.80;;;7.68;;
63089;SDS011;49174;43.198;27.824;2023-11-19T14:02:48;12.30;;;8.07;;
63089;SDS011;49174;43.198;27.824;2023-11-19T14:05:14;11.20;;;7.15;;
63089;SDS011;49174;43.198;27.824;2023-11-19T14:07:42;14.95;;;7.80;;
63089;SDS011;49174;43.198;27.824;2023-11-19T14:10:09;12.40;;;8.05;;
63089;SDS011;49174;43.198;27.824;2023-11-19T14:12:38;10.10;;;7.50;;
63089;SDS011;49174;43.198;27.824;2023-11-19T14:15:05;12.68;;;8.18;;
63089;SDS011;49174;43.198;27.824;2023-11-19T14:17:32;11.57;;;7.95;;
63089;SDS011;49174;43.198;27.824;2023-11-19T14:19:59;12.30;;;7.50;;
63089;SDS011;49174;43.198;27.824;2023-11-19T14:22:25;14.52;;;8.95;;
63089;SDS011;49174;43.198;27.824;2023-11-19T14:24:50;11.05;;;7.20;;
63089;SDS011;49174;43.198;27.824;2023-11-19T14:27:16;12.00;;;7.45;;
63089;SDS011;49174;43.198;27.824;2023-11-19T14:29:44;14.00;;;8.05;;
63089;SDS011;49174;43.198;27.824;2023-11-19T14:32:10;12.85;;;7.57;;
63089;SDS011;49174;43.198;27.824;2023-11-19T14:34:36;11.45;;;7.35;;
63089;SDS011;49174;43.198;27.824;2023-11-19T14:37:02;12.68;;;8.40;;
63089;SDS011;49174;43.198;27.824;2023-11-19T14:39:27;13.18;;;7.60;;
63089;SDS011;49174;43.198;27.824;2023-11-19T14:41:56;14.30;;;7.50;;
63089;SDS011;49174;43.198;27.824;2023-11-19T14:44:26;15.57;;;8.70;;
63089;SDS011;49174;43.198;27.824;2023-11-19T14:46:52;11.63;;;7.80;;
63089;SDS011;49174;43.198;27.824;2023-11-19T14:49:17;11.40;;;6.75;;
63089;SDS011;49174;43.198;27.824;2023-11-19T14:51:43;12.68;;;8.20;;
63089;SDS011;49174;43.198;27.824;2023-11-19T14:54:08;23.90;;;14.48;;
63089;SDS011;49174;43.198;27.824;2023-11-19T14:56:34;12.63;;;8.20;;
63089;SDS011;49174;43.198;27.824;2023-11-19T14:58:59;15.00;;;9.55;;